Aviation Digital Data Service (ADDS)

Output produced by METARs form (1101 UTC 17 June 2019)
found at http://www.aviationweather.gov/metar/data/
 
METAR text: KBTV 171054Z 00000KT 10SM SCT190 12/11 A2999 RMK AO2 SLP154 T01220106
Conditions at: KBTV (BURLINGTON , VT, US) observed 1054 UTC 17 June 2019
Temperature: 12.2°C (54°F)
Dewpoint: 10.6°C (51°F) [RH = 90%]
Pressure (altimeter): 29.99 inches Hg (1015.7 mb)
[Sea-level pressure: 1015.4 mb]
Winds: calm
Visibility: 10 or more miles (16+ km)
Ceiling: at least 12,000 feet AGL
Clouds: scattered clouds at 19000 feet AGL
Weather: no significant weather observed at this time

METAR text: KBTV 170954Z 00000KT 10SM BKN190 11/09 A2997 RMK AO2 SLP148 T01110089
Conditions at: KBTV (BURLINGTON , VT, US) observed 0954 UTC 17 June 2019
Temperature: 11.1°C (52°F)
Dewpoint: 8.9°C (48°F) [RH = 86%]
Pressure (altimeter): 29.97 inches Hg (1015.0 mb)
[Sea-level pressure: 1014.8 mb]
Winds: calm
Visibility: 10 or more miles (16+ km)
Ceiling: 19000 feet AGL
Clouds: broken clouds at 19000 feet AGL
Weather: no significant weather observed at this time

METAR text: KBTV 170854Z AUTO 00000KT 10SM CLR 11/09 A2995 RMK AO2 SLP140 T01060089 51014
Conditions at: KBTV (BURLINGTON , VT, US) observed 0854 UTC 17 June 2019
Temperature: 10.6°C (51°F)
Dewpoint: 8.9°C (48°F) [RH = 89%]
Pressure (altimeter): 29.95 inches Hg (1014.3 mb)
[Sea-level pressure: 1014.0 mb]
Winds: calm
Visibility: 10 or more miles (16+ km)
Ceiling: at least 12,000 feet AGL
Clouds: sky clear below 12,000 feet AGL
Weather: automated observation with no human augmentation;
there may or may not be significant weather present at this time

METAR text: KBTV 170754Z AUTO 00000KT 10SM CLR 11/09 A2994 RMK AO2 SLP137 T01060089
Conditions at: KBTV (BURLINGTON , VT, US) observed 0754 UTC 17 June 2019
Temperature: 10.6°C (51°F)
Dewpoint: 8.9°C (48°F) [RH = 89%]
Pressure (altimeter): 29.94 inches Hg (1014.0 mb)
[Sea-level pressure: 1013.7 mb]
Winds: calm
Visibility: 10 or more miles (16+ km)
Ceiling: at least 12,000 feet AGL
Clouds: sky clear below 12,000 feet AGL
Weather: automated observation with no human augmentation;
there may or may not be significant weather present at this time

METAR text: KBTV 170654Z AUTO 00000KT 10SM CLR 12/10 A2993 RMK AO2 SLP133 T01170100
Conditions at: KBTV (BURLINGTON , VT, US) observed 0654 UTC 17 June 2019
Temperature: 11.7°C (53°F)
Dewpoint: 10.0°C (50°F) [RH = 89%]
Pressure (altimeter): 29.93 inches Hg (1013.6 mb)
[Sea-level pressure: 1013.3 mb]
Winds: calm
Visibility: 10 or more miles (16+ km)
Ceiling: at least 12,000 feet AGL
Clouds: sky clear below 12,000 feet AGL
Weather: automated observation with no human augmentation;
there may or may not be significant weather present at this time

METAR text: KBTV 170554Z AUTO 00000KT 10SM CLR 12/11 A2990 RMK AO2 SLP126 T01220106 10200 20122 53005
Conditions at: KBTV (BURLINGTON , VT, US) observed 0554 UTC 17 June 2019
Temperature: 12.2°C (54°F)
Dewpoint: 10.6°C (51°F) [RH = 90%]
Pressure (altimeter): 29.90 inches Hg (1012.6 mb)
[Sea-level pressure: 1012.6 mb]
Winds: calm
Visibility: 10 or more miles (16+ km)
Ceiling: at least 12,000 feet AGL
Clouds: sky clear below 12,000 feet AGL
Weather: automated observation with no human augmentation;
there may or may not be significant weather present at this time

METAR text: KBTV 170454Z AUTO 00000KT 10SM CLR 13/11 A2990 RMK AO2 SLP123 T01330106 402330128
Conditions at: KBTV (BURLINGTON , VT, US) observed 0454 UTC 17 June 2019
Temperature: 13.3°C (56°F)
Dewpoint: 10.6°C (51°F) [RH = 84%]
Pressure (altimeter): 29.90 inches Hg (1012.6 mb)
[Sea-level pressure: 1012.3 mb]
Winds: calm
Visibility: 10 or more miles (16+ km)
Ceiling: at least 12,000 feet AGL
Clouds: sky clear below 12,000 feet AGL
Weather: automated observation with no human augmentation;
there may or may not be significant weather present at this time

METAR text: KBTV 170354Z 00000KT 10SM CLR 14/11 A2989 RMK AO2 SLP120 LAST T01440106
Conditions at: KBTV (BURLINGTON , VT, US) observed 0354 UTC 17 June 2019
Temperature: 14.4°C (58°F)
Dewpoint: 10.6°C (51°F) [RH = 78%]
Pressure (altimeter): 29.89 inches Hg (1012.3 mb)
[Sea-level pressure: 1012.0 mb]
Winds: calm
Visibility: 10 or more miles (16+ km)
Ceiling: at least 12,000 feet AGL
Clouds: sky clear below 12,000 feet AGL
Weather: no significant weather observed at this time

METAR text: KBTV 170254Z 31003KT 10SM SCT200 16/11 A2989 RMK AO2 SLP121 T01560106 53012
Conditions at: KBTV (BURLINGTON , VT, US) observed 0254 UTC 17 June 2019
Temperature: 15.6°C (60°F)
Dewpoint: 10.6°C (51°F) [RH = 72%]
Pressure (altimeter): 29.89 inches Hg (1012.3 mb)
[Sea-level pressure: 1012.1 mb]
Winds: from the NW (310 degrees) at 3 MPH (3 knots; 1.5 m/s)
Visibility: 10 or more miles (16+ km)
Ceiling: at least 12,000 feet AGL
Clouds: scattered clouds at 20000 feet AGL
Weather: no significant weather observed at this time

METAR text: KBTV 170154Z COR 00000KT 10SM SCT200 18/11 A2987 RMK AO2 SLP115 T01780106
Conditions at: KBTV (BURLINGTON , VT, US) observed 0154 UTC 17 June 2019
Temperature: 17.8°C (64°F)
Dewpoint: 10.6°C (51°F) [RH = 63%]
Pressure (altimeter): 29.87 inches Hg (1011.6 mb)
[Sea-level pressure: 1011.5 mb]
Winds: calm
Visibility: 10 or more miles (16+ km)
Ceiling: at least 12,000 feet AGL
Clouds: scattered clouds at 20000 feet AGL
Weather: no significant weather observed at this time

METAR text: KBTV 170054Z 00000KT 10SM BKN200 19/10 A2985 RMK AO2 SLP108 T01890100
Conditions at: KBTV (BURLINGTON , VT, US) observed 0054 UTC 17 June 2019
Temperature: 18.9°C (66°F)
Dewpoint: 10.0°C (50°F) [RH = 56%]
Pressure (altimeter): 29.85 inches Hg (1010.9 mb)
[Sea-level pressure: 1010.8 mb]
Winds: calm
Visibility: 10 or more miles (16+ km)
Ceiling: 20000 feet AGL
Clouds: broken clouds at 20000 feet AGL
Weather: no significant weather observed at this time

METAR text: KBTV 162354Z 36005KT 10SM BKN180 BKN220 20/10 A2985 RMK AO2 SLP109 T02000100 10233 20200 51008
Conditions at: KBTV (BURLINGTON , VT, US) observed 2354 UTC 16 June 2019
Temperature: 20.0°C (68°F)
Dewpoint: 10.0°C (50°F) [RH = 53%]
Pressure (altimeter): 29.85 inches Hg (1010.9 mb)
[Sea-level pressure: 1010.9 mb]
Winds: from the N (360 degrees) at 6 MPH (5 knots; 2.6 m/s)
Visibility: 10 or more miles (16+ km)
Ceiling: 18000 feet AGL
Clouds: broken clouds at 18000 feet AGL
broken clouds at 22000 feet AGL
Weather: no significant weather observed at this time

METAR text: KBTV 162254Z 36006KT 10SM SCT150 BKN200 21/10 A2985 RMK AO2 SLP107 T02060100
Conditions at: KBTV (BURLINGTON , VT, US) observed 2254 UTC 16 June 2019
Temperature: 20.6°C (69°F)
Dewpoint: 10.0°C (50°F) [RH = 51%]
Pressure (altimeter): 29.85 inches Hg (1010.9 mb)
[Sea-level pressure: 1010.7 mb]
Winds: from the N (360 degrees) at 7 MPH (6 knots; 3.1 m/s)
Visibility: 10 or more miles (16+ km)
Ceiling: 20000 feet AGL
Clouds: scattered clouds at 15000 feet AGL
broken clouds at 20000 feet AGL
Weather: no significant weather observed at this time

METAR text: KBTV 162154Z 34008KT 10SM SCT150 BKN200 22/11 A2983 RMK AO2 SLP102 T02170106
Conditions at: KBTV (BURLINGTON , VT, US) observed 2154 UTC 16 June 2019
Temperature: 21.7°C (71°F)
Dewpoint: 10.6°C (51°F) [RH = 49%]
Pressure (altimeter): 29.83 inches Hg (1010.2 mb)
[Sea-level pressure: 1010.2 mb]
Winds: from the NNW (340 degrees) at 9 MPH (8 knots; 4.1 m/s)
Visibility: 10 or more miles (16+ km)
Ceiling: 20000 feet AGL
Clouds: scattered clouds at 15000 feet AGL
broken clouds at 20000 feet AGL
Weather: no significant weather observed at this time

METAR text: KBTV 162054Z 32009KT 10SM SCT150 BKN220 22/11 A2983 RMK AO2 SLP100 T02170111 58003
Conditions at: KBTV (BURLINGTON , VT, US) observed 2054 UTC 16 June 2019
Temperature: 21.7°C (71°F)
Dewpoint: 11.1°C (52°F) [RH = 51%]
Pressure (altimeter): 29.83 inches Hg (1010.2 mb)
[Sea-level pressure: 1010.0 mb]
Winds: from the NW (320 degrees) at 10 MPH (9 knots; 4.6 m/s)
Visibility: 10 or more miles (16+ km)
Ceiling: 22000 feet AGL
Clouds: scattered clouds at 15000 feet AGL
broken clouds at 22000 feet AGL
Weather: no significant weather observed at this time

METAR text: KBTV 161954Z 32004KT 10SM FEW040 BKN200 23/09 A2983 RMK AO2 SLP099 T02280094
Conditions at: KBTV (BURLINGTON , VT, US) observed 1954 UTC 16 June 2019
Temperature: 22.8°C (73°F)
Dewpoint: 9.4°C (49°F) [RH = 42%]
Pressure (altimeter): 29.83 inches Hg (1010.2 mb)
[Sea-level pressure: 1009.9 mb]
Winds: from the NW (320 degrees) at 5 MPH (4 knots; 2.1 m/s)
Visibility: 10 or more miles (16+ km)
Ceiling: 20000 feet AGL
Clouds: few clouds at 4000 feet AGL
broken clouds at 20000 feet AGL
Weather: no significant weather observed at this time

METAR text: KBTV 161854Z VRB05KT 10SM FEW039 BKN100 BKN200 22/11 A2984 RMK AO2 SLP102 T02220106
Conditions at: KBTV (BURLINGTON , VT, US) observed 1854 UTC 16 June 2019
Temperature: 22.2°C (72°F)
Dewpoint: 10.6°C (51°F) [RH = 48%]
Pressure (altimeter): 29.84 inches Hg (1010.6 mb)
[Sea-level pressure: 1010.2 mb]
Winds: variable direction winds at 6 MPH (5 knots; 2.6 m/s)
Visibility: 10 or more miles (16+ km)
Ceiling: 10000 feet AGL
Clouds: few clouds at 3900 feet AGL
broken clouds at 10000 feet AGL
broken clouds at 20000 feet AGL
Weather: no significant weather observed at this time

METAR text: KBTV 161754Z 29006KT 10SM FEW039 BKN100 BKN200 22/11 A2984 RMK AO2 SLP102 T02220106 10228 20167 58009
Conditions at: KBTV (BURLINGTON , VT, US) observed 1754 UTC 16 June 2019
Temperature: 22.2°C (72°F)
Dewpoint: 10.6°C (51°F) [RH = 48%]
Pressure (altimeter): 29.84 inches Hg (1010.6 mb)
[Sea-level pressure: 1010.2 mb]
Winds: from the WNW (290 degrees) at 7 MPH (6 knots; 3.1 m/s)
Visibility: 10 or more miles (16+ km)
Ceiling: 10000 feet AGL
Clouds: few clouds at 3900 feet AGL
broken clouds at 10000 feet AGL
broken clouds at 20000 feet AGL
Weather: no significant weather observed at this time

METAR text: KBTV 161654Z 00000KT 10SM SCT033 BKN100 BKN200 21/12 A2985 RMK AO2 SLP106 T02110117
Conditions at: KBTV (BURLINGTON , VT, US) observed 1654 UTC 16 June 2019
Temperature: 21.1°C (70°F)
Dewpoint: 11.7°C (53°F) [RH = 55%]
Pressure (altimeter): 29.85 inches Hg (1010.9 mb)
[Sea-level pressure: 1010.6 mb]
Winds: calm
Visibility: 10 or more miles (16+ km)
Ceiling: 10000 feet AGL
Clouds: scattered clouds at 3300 feet AGL
broken clouds at 10000 feet AGL
broken clouds at 20000 feet AGL
Weather: no significant weather observed at this time

METAR text: KBTV 161554Z 03006KT 10SM SCT050 BKN100 BKN200 21/12 A2985 RMK AO2 SLP109 T02060122
Conditions at: KBTV (BURLINGTON , VT, US) observed 1554 UTC 16 June 2019
Temperature: 20.6°C (69°F)
Dewpoint: 12.2°C (54°F) [RH = 59%]
Pressure (altimeter): 29.85 inches Hg (1010.9 mb)
[Sea-level pressure: 1010.9 mb]
Winds: from the NNE (30 degrees) at 7 MPH (6 knots; 3.1 m/s)
Visibility: 10 or more miles (16+ km)
Ceiling: 10000 feet AGL
Clouds: scattered clouds at 5000 feet AGL
broken clouds at 10000 feet AGL
broken clouds at 20000 feet AGL
Weather: no significant weather observed at this time

METAR text: KBTV 161454Z 00000KT 10SM BKN027 BKN050 19/12 A2986 RMK AO2 SLP112 T01940117 55000
Conditions at: KBTV (BURLINGTON , VT, US) observed 1454 UTC 16 June 2019
Temperature: 19.4°C (67°F)
Dewpoint: 11.7°C (53°F) [RH = 61%]
Pressure (altimeter): 29.86 inches Hg (1011.3 mb)
[Sea-level pressure: 1011.2 mb]
Winds: calm
Visibility: 10 or more miles (16+ km)
Ceiling: 2700 feet AGL
Clouds: broken clouds at 2700 feet AGL
broken clouds at 5000 feet AGL
Weather: no significant weather observed at this time

METAR text: KBTV 161354Z 10004KT 10SM BKN027 BKN040 17/12 A2986 RMK AO2 SLP112 T01720122
Conditions at: KBTV (BURLINGTON , VT, US) observed 1354 UTC 16 June 2019
Temperature: 17.2°C (63°F)
Dewpoint: 12.2°C (54°F) [RH = 72%]
Pressure (altimeter): 29.86 inches Hg (1011.3 mb)
[Sea-level pressure: 1011.2 mb]
Winds: from the E (100 degrees) at 5 MPH (4 knots; 2.1 m/s)
Visibility: 10 or more miles (16+ km)
Ceiling: 2700 feet AGL
Clouds: broken clouds at 2700 feet AGL
broken clouds at 4000 feet AGL
Weather: no significant weather observed at this time

METAR text: KBTV 161322Z 06003KT 10SM BKN027 BKN040 18/12 A2987 RMK AO2 T01780122
Conditions at: KBTV (BURLINGTON , VT, US) observed 1322 UTC 16 June 2019
Temperature: 17.8°C (64°F)
Dewpoint: 12.2°C (54°F) [RH = 70%]
Pressure (altimeter): 29.87 inches Hg (1011.6 mb)
Winds: from the ENE (60 degrees) at 3 MPH (3 knots; 1.5 m/s)
Visibility: 10 or more miles (16+ km)
Ceiling: 2700 feet AGL
Clouds: broken clouds at 2700 feet AGL
broken clouds at 4000 feet AGL
Weather: no significant weather observed at this time

METAR text: KBTV 161254Z 08005KT 10SM BKN031 BKN040 17/13 A2986 RMK AO2 SLP111 T01720128
Conditions at: KBTV (BURLINGTON , VT, US) observed 1254 UTC 16 June 2019
Temperature: 17.2°C (63°F)
Dewpoint: 12.8°C (55°F) [RH = 75%]
Pressure (altimeter): 29.86 inches Hg (1011.3 mb)
[Sea-level pressure: 1011.1 mb]
Winds: from the E (80 degrees) at 6 MPH (5 knots; 2.6 m/s)
Visibility: 10 or more miles (16+ km)
Ceiling: 3100 feet AGL
Clouds: broken clouds at 3100 feet AGL
broken clouds at 4000 feet AGL
Weather: no significant weather observed at this time

METAR text: KBTV 161154Z 06003KT 10SM BKN033 BKN050 17/13 A2986 RMK AO2 SLP111 70009 T01670133 10167 20156 53007
Conditions at: KBTV (BURLINGTON , VT, US) observed 1154 UTC 16 June 2019
Temperature: 16.7°C (62°F)
Dewpoint: 13.3°C (56°F) [RH = 80%]
Pressure (altimeter): 29.86 inches Hg (1011.3 mb)
[Sea-level pressure: 1011.1 mb]
Winds: from the ENE (60 degrees) at 3 MPH (3 knots; 1.5 m/s)
Visibility: 10 or more miles (16+ km)
Ceiling: 3300 feet AGL
Clouds: broken clouds at 3300 feet AGL
broken clouds at 5000 feet AGL
Weather: no significant weather observed at this time

METAR text: KBTV 161054Z 08004KT 10SM BKN031 BKN055 16/14 A2985 RMK AO2 SLP109 VCFG T01610139
Conditions at: KBTV (BURLINGTON , VT, US) observed 1054 UTC 16 June 2019
Temperature: 16.1°C (61°F)
Dewpoint: 13.9°C (57°F) [RH = 87%]
Pressure (altimeter): 29.85 inches Hg (1010.9 mb)
[Sea-level pressure: 1010.9 mb]
Winds: from the E (80 degrees) at 5 MPH (4 knots; 2.1 m/s)
Visibility: 10 or more miles (16+ km)
Ceiling: 3100 feet AGL
Clouds: broken clouds at 3100 feet AGL
broken clouds at 5500 feet AGL
Weather: no significant weather observed at this time

METAR text: KBTV 160954Z 00000KT 10SM BKN033 BKN041 OVC055 16/14 A2985 RMK AO2 SLP108 VCFG T01610144
Conditions at: KBTV (BURLINGTON , VT, US) observed 0954 UTC 16 June 2019
Temperature: 16.1°C (61°F)
Dewpoint: 14.4°C (58°F) [RH = 90%]
Pressure (altimeter): 29.85 inches Hg (1010.9 mb)
[Sea-level pressure: 1010.8 mb]
Winds: calm
Visibility: 10 or more miles (16+ km)
Ceiling: 3300 feet AGL
Clouds: broken clouds at 3300 feet AGL
broken clouds at 4100 feet AGL
overcast cloud deck at 5500 feet AGL
Weather: no significant weather observed at this time

METAR text: KBTV 160854Z 00000KT 10SM FEW022 OVC031 16/14 A2984 RMK AO2 SLP104 T01610144 53002
Conditions at: KBTV (BURLINGTON , VT, US) observed 0854 UTC 16 June 2019
Temperature: 16.1°C (61°F)
Dewpoint: 14.4°C (58°F) [RH = 90%]
Pressure (altimeter): 29.84 inches Hg (1010.6 mb)
[Sea-level pressure: 1010.4 mb]
Winds: calm
Visibility: 10 or more miles (16+ km)
Ceiling: 3100 feet AGL
Clouds: few clouds at 2200 feet AGL
overcast cloud deck at 3100 feet AGL
Weather: no significant weather observed at this time

METAR text: KBTV 160754Z 19003KT 10SM BKN033 16/15 A2984 RMK AO2 SLP102 T01610150
Conditions at: KBTV (BURLINGTON , VT, US) observed 0754 UTC 16 June 2019
Temperature: 16.1°C (61°F)
Dewpoint: 15.0°C (59°F) [RH = 93%]
Pressure (altimeter): 29.84 inches Hg (1010.6 mb)
[Sea-level pressure: 1010.2 mb]
Winds: from the S (190 degrees) at 3 MPH (3 knots; 1.5 m/s)
Visibility: 10 or more miles (16+ km)
Ceiling: 3300 feet AGL
Clouds: broken clouds at 3300 feet AGL
Weather: no significant weather observed at this time

METAR text: KBTV 160654Z 18006KT 10SM BKN034 BKN046 16/14 A2984 RMK AO2 SLP103 T01610144
Conditions at: KBTV (BURLINGTON , VT, US) observed 0654 UTC 16 June 2019
Temperature: 16.1°C (61°F)
Dewpoint: 14.4°C (58°F) [RH = 90%]
Pressure (altimeter): 29.84 inches Hg (1010.6 mb)
[Sea-level pressure: 1010.3 mb]
Winds: from the S (180 degrees) at 7 MPH (6 knots; 3.1 m/s)
Visibility: 10 or more miles (16+ km)
Ceiling: 3400 feet AGL
Clouds: broken clouds at 3400 feet AGL
broken clouds at 4600 feet AGL
Weather: no significant weather observed at this time

METAR text: KBTV 160554Z 19006KT 10SM OVC055 17/15 A2983 RMK AO2 SLP101 60008 T01670150 10222 20167 50000
Conditions at: KBTV (BURLINGTON , VT, US) observed 0554 UTC 16 June 2019
Temperature: 16.7°C (62°F)
Dewpoint: 15.0°C (59°F) [RH = 90%]
Pressure (altimeter): 29.83 inches Hg (1010.2 mb)
[Sea-level pressure: 1010.1 mb]
Winds: from the S (190 degrees) at 7 MPH (6 knots; 3.1 m/s)
Visibility: 10 or more miles (16+ km)
Ceiling: 5500 feet AGL
Clouds: overcast cloud deck at 5500 feet AGL
Weather: no significant weather observed at this time

METAR text: KBTV 160454Z 21003KT 10SM OVC034 17/15 A2984 RMK AO2 SLP104 T01720150 402670128
Conditions at: KBTV (BURLINGTON , VT, US) observed 0454 UTC 16 June 2019
Temperature: 17.2°C (63°F)
Dewpoint: 15.0°C (59°F) [RH = 87%]
Pressure (altimeter): 29.84 inches Hg (1010.6 mb)
[Sea-level pressure: 1010.4 mb]
Winds: from the SSW (210 degrees) at 3 MPH (3 knots; 1.5 m/s)
Visibility: 10 or more miles (16+ km)
Ceiling: 3400 feet AGL
Clouds: overcast cloud deck at 3400 feet AGL
Weather: no significant weather observed at this time

METAR text: KBTV 160354Z 23003KT 10SM OVC036 17/15 A2984 RMK AO2 RAE09 SLP102 /LAST/ P0001 T01720150
Conditions at: KBTV (BURLINGTON , VT, US) observed 0354 UTC 16 June 2019
Temperature: 17.2°C (63°F)
Dewpoint: 15.0°C (59°F) [RH = 87%]
Pressure (altimeter): 29.84 inches Hg (1010.6 mb)
[Sea-level pressure: 1010.2 mb]
Winds: from the SW (230 degrees) at 3 MPH (3 knots; 1.5 m/s)
Visibility: 10 or more miles (16+ km)
Ceiling: 3600 feet AGL
Clouds: overcast cloud deck at 3600 feet AGL
Weather: no significant weather observed at this time

METAR text: KBTV 160254Z 21005KT 9SM -RA FEW025 BKN040 OVC060 17/14 A2983 RMK AO2 RAB0156 SLP102 P0007 60007 T01670144 53017
Conditions at: KBTV (BURLINGTON , VT, US) observed 0254 UTC 16 June 2019
Temperature: 16.7°C (62°F)
Dewpoint: 14.4°C (58°F) [RH = 86%]
Pressure (altimeter): 29.83 inches Hg (1010.2 mb)
[Sea-level pressure: 1010.2 mb]
Winds: from the SSW (210 degrees) at 6 MPH (5 knots; 2.6 m/s)
Visibility: 9 miles (14 km)
Ceiling: 4000 feet AGL
Clouds: few clouds at 2500 feet AGL
broken clouds at 4000 feet AGL
overcast cloud deck at 6000 feet AGL
Weather: -RA  (light rain)

METAR text: KBTV 160154Z 28008KT 10SM BKN041 BKN048 OVC055 19/12 A2982 RMK AO2 RAB14E53 SLP098 P0000 T01940122
Conditions at: KBTV (BURLINGTON , VT, US) observed 0154 UTC 16 June 2019
Temperature: 19.4°C (67°F)
Dewpoint: 12.2°C (54°F) [RH = 63%]
Pressure (altimeter): 29.82 inches Hg (1009.9 mb)
[Sea-level pressure: 1009.8 mb]
Winds: from the W (280 degrees) at 9 MPH (8 knots; 4.1 m/s)
Visibility: 10 or more miles (16+ km)
Ceiling: 4100 feet AGL
Clouds: broken clouds at 4100 feet AGL
broken clouds at 4800 feet AGL
overcast cloud deck at 5500 feet AGL
Weather: no significant weather observed at this time

METAR text: KBTV 160054Z 21016G30KT 10SM BKN060 OVC075 22/11 A2979 RMK AO2 PK WND 20030/0046 SLP085 T02220106
Conditions at: KBTV (BURLINGTON , VT, US) observed 0054 UTC 16 June 2019
Temperature: 22.2°C (72°F)
Dewpoint: 10.6°C (51°F) [RH = 48%]
Pressure (altimeter): 29.79 inches Hg (1008.9 mb)
[Sea-level pressure: 1008.5 mb]
Winds: from the SSW (210 degrees) at 18 MPH (16 knots; 8.2 m/s)
gusting to 34 MPH (30 knots; 15.4 m/s)
Visibility: 10 or more miles (16+ km)
Ceiling: 6000 feet AGL
Clouds: broken clouds at 6000 feet AGL
overcast cloud deck at 7500 feet AGL
Weather: no significant weather observed at this time

METAR text: KBTV 152354Z 20007KT 10SM OVC080 22/10 A2978 RMK AO2 RAE24 SLP085 P0000 60001 T02170100 10267 20211 58002
Conditions at: KBTV (BURLINGTON , VT, US) observed 2354 UTC 15 June 2019
Temperature: 21.7°C (71°F)
Dewpoint: 10.0°C (50°F) [RH = 47%]
Pressure (altimeter): 29.78 inches Hg (1008.5 mb)
[Sea-level pressure: 1008.5 mb]
Winds: from the SSW (200 degrees) at 8 MPH (7 knots; 3.6 m/s)
Visibility: 10 or more miles (16+ km)
Ceiling: 8000 feet AGL
Clouds: overcast cloud deck at 8000 feet AGL
Weather: no significant weather observed at this time

Forecast for: KBTV (BURLINGTON , VT, US)
Text: KBTV 170520Z 1706/1806 VRB03KT P6SM SKC
Forecast period: 0600 to 1600 UTC 17 June 2019
Forecast type: FROM: standard forecast or significant change
Winds: variable direction winds at 3 MPH (3 knots; 1.5 m/s)
Visibility: 6 or more miles 10+ km)
Clouds: clear skies
Weather: no significant weather forecast for this period
Text: FM171600 32006KT P6SM SKC
Forecast period: 1600 UTC 17 June 2019 to 0600 UTC 18 June 2019
Forecast type: FROM: standard forecast or significant change
Winds: from the NW (320 degrees) at 7 MPH (6 knots; 3.1 m/s)
Visibility: 6 or more miles 10+ km)
Clouds: clear skies
Weather: no significant weather forecast for this period